Time;durP1;ratioP1;P1;durP2;ratioP2;P2;SDS_P1;SDS_P2;PMS_P1;PMS_P2;Temp;Humidity;BMP_temperature;BMP_pressure;BME280_temperature;BME280_humidity;BME280_pressure;Samples;Min_cycle;Max_cycle;Signal;HPM_P1;HPM_P2
2022/12/19 00:00:42;;;;;;;51.15;38.55;;;1.00;99.90;;;;;;4947095;29;20032;-75
2022/12/19 00:03:07;;;;;;;50.30;39.35;;;0.90;99.90;;;;;;4947030;29;20062;-75
2022/12/19 00:05:38;;;;;;;47.63;34.80;;;1.00;99.90;;;;;;4947059;29;20055;-75
2022/12/19 00:08:04;;;;;;;51.45;41.08;;;0.90;99.90;;;;;;4948385;29;20047;-75
2022/12/19 00:10:30;;;;;;;49.95;39.38;;;0.90;99.90;;;;;;4930989;29;20032;-75
2022/12/19 00:12:56;;;;;;;53.40;38.97;;;1.00;99.90;;;;;;4946995;29;20039;-75
2022/12/19 00:15:22;;;;;;;45.03;37.83;;;1.00;99.90;;;;;;4946827;29;20039;-76
2022/12/19 00:17:48;;;;;;;45.35;37.78;;;1.00;99.90;;;;;;4946894;29;20580;-75
2022/12/19 00:20:14;;;;;;;47.20;37.88;;;1.00;99.90;;;;;;4948220;29;20386;-75
2022/12/19 00:22:40;;;;;;;42.92;36.92;;;1.10;99.90;;;;;;4952053;29;20039;-75
2022/12/19 00:25:06;;;;;;;56.88;39.58;;;1.10;99.90;;;;;;4954931;29;20058;-75
2022/12/19 00:27:35;;;;;;;56.75;41.42;;;1.10;99.90;;;;;;4963299;28;20038;-75
2022/12/19 00:30:01;;;;;;;50.45;41.65;;;1.10;99.90;;;;;;4950565;29;20039;-75
2022/12/19 00:32:27;;;;;;;44.15;38.42;;;1.10;99.90;;;;;;4966486;29;20039;-75
2022/12/19 00:34:53;;;;;;;55.33;40.92;;;1.20;99.90;;;;;;4951915;29;20032;-75
2022/12/19 00:37:18;;;;;;;46.15;39.70;;;1.20;99.90;;;;;;4950296;29;20036;-75
2022/12/19 00:39:44;;;;;;;53.20;41.10;;;1.20;99.90;;;;;;4950717;29;20042;-75
2022/12/19 00:42:12;;;;;;;51.20;39.70;;;1.20;99.90;;;;;;4950719;29;20067;-75
2022/12/19 00:44:38;;;;;;;57.30;40.30;;;1.20;99.90;;;;;;4950287;29;20027;-75
2022/12/19 00:47:04;;;;;;;48.50;40.90;;;1.20;99.90;;;;;;4950477;29;20047;-75
2022/12/19 00:49:30;;;;;;;49.15;37.97;;;1.20;99.90;;;;;;4950332;29;20411;-75
2022/12/19 00:51:58;;;;;;;48.65;38.80;;;1.30;99.90;;;;;;4950265;29;20173;-75
2022/12/19 00:54:24;;;;;;;50.17;38.20;;;1.30;99.90;;;;;;4950178;29;20040;-75
2022/12/19 00:56:50;;;;;;;50.45;38.30;;;1.30;99.90;;;;;;4968440;29;20047;-75
2022/12/19 00:59:15;;;;;;;52.20;39.45;;;1.40;99.90;;;;;;4969272;29;20059;-75
2022/12/19 01:01:42;;;;;;;61.38;37.25;;;1.40;99.90;;;;;;4970557;29;20110;-75
2022/12/19 01:04:12;;;;;;;40.50;35.08;;;1.40;99.90;;;;;;4970160;28;20038;-75
2022/12/19 01:06:41;;;;;;;36.55;32.67;;;1.50;99.90;;;;;;4963547;29;20108;-75
2022/12/19 01:09:08;;;;;;;43.30;33.67;;;1.50;99.90;;;;;;4950064;29;20031;-75
2022/12/19 01:14:18;;;;;;;45.42;37.55;;;1.50;99.90;;;;;;4951246;29;20095;-75
2022/12/19 01:16:44;;;;;;;44.13;33.92;;;1.50;99.90;;;;;;4965645;29;20038;-75
2022/12/19 01:19:09;;;;;;;46.08;39.78;;;1.50;99.90;;;;;;4950006;29;20032;-75
2022/12/19 01:21:35;;;;;;;45.65;35.67;;;1.50;99.90;;;;;;4949593;29;20032;-75
2022/12/19 01:24:02;;;;;;;37.75;33.20;;;1.60;99.90;;;;;;4950822;29;20034;-75
2022/12/19 01:26:28;;;;;;;43.72;33.78;;;1.60;99.90;;;;;;4968902;29;20038;-75
2022/12/19 01:28:54;;;;;;;43.58;33.17;;;1.70;99.90;;;;;;4968658;29;20094;-75
2022/12/19 01:31:21;;;;;;;42.05;34.60;;;1.80;99.90;;;;;;4967808;28;20487;-75
2022/12/19 01:33:47;;;;;;;38.33;32.28;;;1.90;99.90;;;;;;4968658;29;20151;-75
2022/12/19 01:36:14;;;;;;;38.97;31.25;;;1.90;99.90;;;;;;4969885;28;20058;-75
2022/12/19 01:38:39;;;;;;;49.45;33.03;;;1.90;99.90;;;;;;4969683;29;20114;-76
2022/12/19 01:41:06;;;;;;;47.17;30.92;;;2.00;99.90;;;;;;4968530;29;20465;-76
2022/12/19 01:43:54;;;;;;;42.70;30.20;;;2.10;99.90;;;;;;4968497;29;20379;-75
2022/12/19 01:46:35;;;;;;;32.30;28.45;;;2.10;99.90;;;;;;4968535;29;20051;-75
2022/12/19 01:49:03;;;;;;;31.67;26.00;;;2.20;99.90;;;;;;4968206;28;20438;-75
2022/12/19 01:51:39;;;;;;;34.33;28.17;;;2.30;99.90;;;;;;4968362;29;20031;-75
2022/12/19 01:54:09;;;;;;;29.30;25.88;;;2.30;99.90;;;;;;4979560;28;20031;-75
2022/12/19 01:56:41;;;;;;;34.60;27.10;;;2.40;99.90;;;;;;4950448;29;20032;-75
2022/12/19 01:59:21;;;;;;;27.85;24.75;;;2.40;99.90;;;;;;4949015;29;20055;-75
2022/12/19 02:01:47;;;;;;;;;;;2.40;99.90;;;;;;4949495;29;20454;-75
2022/12/19 02:04:13;;;;;;;30.13;24.42;;;2.50;99.90;;;;;;4949929;29;19922;-76
2022/12/19 02:06:41;;;;;;;32.22;23.30;;;2.50;99.90;;;;;;4953746;29;20062;-75
2022/12/19 02:09:08;;;;;;;38.67;27.98;;;2.50;99.90;;;;;;4968037;29;20042;-75
2022/12/19 02:11:34;;;;;;;26.92;23.75;;;2.60;99.90;;;;;;4964503;29;20027;-75
2022/12/19 02:14:00;;;;;;;27.95;24.92;;;2.60;99.90;;;;;;4948688;29;20040;-75
2022/12/19 02:16:30;;;;;;;31.85;25.00;;;2.60;99.90;;;;;;4948710;29;20055;-75
2022/12/19 02:19:05;;;;;;;22.63;17.13;;;2.60;99.90;;;;;;4948586;29;20039;-75
2022/12/19 02:21:49;;;;;;;29.02;23.20;;;2.60;99.90;;;;;;4948791;29;20028;-75
2022/12/19 02:24:37;;;;;;;35.08;24.58;;;2.70;99.90;;;;;;4948743;29;20124;-75
2022/12/19 02:27:49;;;;;;;35.10;21.58;;;2.70;99.90;;;;;;4949780;29;20031;-76
2022/12/19 02:30:43;;;;;;;36.13;24.67;;;2.70;99.90;;;;;;4948381;29;20042;-75
2022/12/19 02:33:30;;;;;;;32.55;23.85;;;2.70;99.90;;;;;;4948601;29;20043;-75
2022/12/19 02:36:07;;;;;;;30.60;23.50;;;2.70;99.90;;;;;;4957577;29;20047;-75
2022/12/19 02:38:52;;;;;;;31.02;23.65;;;2.80;99.90;;;;;;4949216;29;20023;-75
2022/12/19 02:41:41;;;;;;;29.23;23.40;;;2.80;99.90;;;;;;4948206;29;20115;-76
2022/12/19 02:44:19;;;;;;;28.42;21.67;;;3.00;99.90;;;;;;4948233;29;20566;-75
2022/12/19 02:46:47;;;;;;;24.60;21.50;;;3.10;99.90;;;;;;4948222;29;20095;-76
2022/12/19 02:49:13;;;;;;;28.35;19.83;;;3.20;99.90;;;;;;4948114;29;20072;-75
2022/12/19 02:51:40;;;;;;;29.38;21.73;;;3.20;99.90;;;;;;4949357;29;20476;-75
2022/12/19 02:54:08;;;;;;;21.60;18.95;;;3.30;99.90;;;;;;4949029;29;20047;-75
2022/12/19 02:56:50;;;;;;;28.00;21.13;;;3.50;99.90;;;;;;4947806;29;20024;-75
2022/12/19 02:59:21;;;;;;;30.65;22.33;;;3.50;99.90;;;;;;4947864;29;20051;-75
2022/12/19 03:01:54;;;;;;;29.30;21.35;;;3.70;99.90;;;;;;4948142;29;20036;-75
2022/12/19 03:04:35;;;;;;;26.80;22.40;;;3.70;99.90;;;;;;4947798;29;20047;-75
2022/12/19 03:07:45;;;;;;;30.13;22.15;;;4.00;99.90;;;;;;4954833;29;20039;-75
2022/12/19 03:10:13;;;;;;;;;;;4.30;99.90;;;;;;4912219;29;20043;-76
2022/12/19 03:12:51;;;;;;;26.05;16.35;;;4.40;99.90;;;;;;4911822;29;19946;-75
2022/12/19 03:15:18;;;;;;;23.65;18.55;;;4.50;99.90;;;;;;4944110;29;20525;-75
2022/12/19 03:17:45;;;;;;;25.05;19.08;;;4.70;99.90;;;;;;4966688;29;20055;-75
2022/12/19 03:20:39;;;;;;;36.55;22.15;;;4.70;99.90;;;;;;4967071;29;20019;-75
2022/12/19 03:23:05;;;;;;;20.48;16.05;;;4.70;99.90;;;;;;4967280;29;20027;-75
2022/12/19 03:25:32;;;;;;;20.88;17.67;;;4.90;99.90;;;;;;4968069;29;20065;-75
2022/12/19 03:28:03;;;;;;;23.48;17.20;;;4.90;99.90;;;;;;4968013;28;20038;-75
2022/12/19 03:30:32;;;;;;;23.23;17.33;;;5.00;99.90;;;;;;4966745;29;20031;-75
2022/12/19 03:32:59;;;;;;;21.13;17.30;;;5.10;99.90;;;;;;4968005;28;20042;-75
2022/12/19 03:35:29;;;;;;;30.08;17.90;;;5.10;99.90;;;;;;4950500;29;20043;-76
2022/12/19 03:37:57;;;;;;;19.63;15.55;;;5.20;99.90;;;;;;4966139;29;20059;-75
2022/12/19 03:40:25;;;;;;;19.63;15.60;;;5.20;99.90;;;;;;4966618;29;20032;-76
2022/12/19 03:43:10;;;;;;;18.50;16.35;;;5.20;99.90;;;;;;4966610;29;20023;-75
2022/12/19 03:46:02;;;;;;;21.45;17.33;;;5.30;99.90;;;;;;4967784;29;20069;-76
2022/12/19 03:48:40;;;;;;;21.33;17.48;;;5.30;99.90;;;;;;4966653;29;20097;-75
2022/12/19 03:51:27;;;;;;;17.58;14.70;;;5.30;99.90;;;;;;4982746;28;20035;-76
2022/12/19 03:54:00;;;;;;;21.42;16.55;;;5.30;99.90;;;;;;4955269;28;20032;-76
2022/12/19 03:56:37;;;;;;;23.48;16.98;;;5.50;99.90;;;;;;4962926;29;20188;-75
2022/12/19 03:59:17;;;;;;;20.33;15.50;;;5.50;99.90;;;;;;4948501;29;20496;-76
2022/12/19 04:01:44;;;;;;;17.15;15.30;;;5.50;99.90;;;;;;4948348;29;20107;-76
2022/12/19 04:04:12;;;;;;;21.02;13.90;;;5.50;99.90;;;;;;4948446;29;20056;-75
2022/12/19 04:06:41;;;;;;;21.27;13.50;;;5.50;99.90;;;;;;4950550;29;20040;-75
2022/12/19 04:09:07;;;;;;;19.63;14.68;;;5.50;99.90;;;;;;4965864;29;20042;-75
2022/12/19 04:11:39;;;;;;;19.13;15.93;;;5.60;99.90;;;;;;4967536;29;20027;-76
2022/12/19 04:14:11;;;;;;;19.98;14.43;;;5.50;99.90;;;;;;4956320;28;20396;-75
2022/12/19 04:17:14;;;;;;;17.30;13.00;;;5.60;99.90;;;;;;4946981;29;20466;-76
2022/12/19 04:20:01;;;;;;;20.85;14.23;;;5.60;99.90;;;;;;4948453;29;20032;-75
2022/12/19 04:22:33;;;;;;;20.45;13.82;;;5.70;99.90;;;;;;4948516;29;20428;-76
2022/12/19 04:25:05;;;;;;;17.58;14.25;;;5.70;99.90;;;;;;4948292;29;20032;-75
2022/12/19 04:27:34;;;;;;;14.68;13.18;;;5.70;99.90;;;;;;4946916;29;20039;-76
2022/12/19 04:30:02;;;;;;;20.60;15.15;;;5.70;99.90;;;;;;4947908;29;20050;-76
2022/12/19 04:32:31;;;;;;;15.00;13.55;;;5.70;99.90;;;;;;4949194;29;20086;-75
2022/12/19 04:34:57;;;;;;;17.17;13.48;;;5.70;99.90;;;;;;4962312;28;20039;-76
2022/12/19 04:37:24;;;;;;;23.52;13.95;;;6.00;99.90;;;;;;4962635;29;20450;-76
2022/12/19 04:39:50;;;;;;;17.00;13.27;;;6.00;99.90;;;;;;4962921;29;20036;-75
2022/12/19 04:42:16;;;;;;;14.10;12.43;;;6.00;99.90;;;;;;4947929;29;20036;-75
2022/12/19 04:44:42;;;;;;;17.05;11.82;;;6.10;99.90;;;;;;4948067;29;20035;-76
2022/12/19 04:47:07;;;;;;;12.38;11.02;;;6.10;99.90;;;;;;4948149;29;20032;-76
2022/12/19 04:49:33;;;;;;;10.55;9.52;;;6.20;99.90;;;;;;4957847;29;20031;-76
2022/12/19 04:51:59;;;;;;;12.02;10.75;;;6.20;99.90;;;;;;4965689;29;20039;-75
2022/12/19 04:54:25;;;;;;;12.25;9.80;;;6.20;99.90;;;;;;4967273;29;20031;-75
2022/12/19 04:56:52;;;;;;;14.32;12.23;;;6.20;99.90;;;;;;4965911;29;20494;-75
2022/12/19 04:59:18;;;;;;;12.38;9.75;;;6.30;99.90;;;;;;4967030;29;20038;-75
2022/12/19 05:01:44;;;;;;;14.45;11.18;;;6.40;99.90;;;;;;4947708;29;20039;-76
2022/12/19 05:04:10;;;;;;;13.65;10.55;;;6.50;99.90;;;;;;4947663;29;20055;-75
2022/12/19 05:06:36;;;;;;;9.02;8.13;;;6.50;99.90;;;;;;4947424;29;20042;-75
2022/12/19 05:09:02;;;;;;;14.35;9.90;;;6.40;99.90;;;;;;4985467;28;20031;-75
2022/12/19 05:11:28;;;;;;;15.40;9.90;;;6.60;99.90;;;;;;4985188;28;20062;-75
2022/12/19 05:13:53;;;;;;;9.45;8.35;;;6.60;99.90;;;;;;4970312;28;20035;-75
2022/12/19 05:16:19;;;;;;;12.80;9.15;;;6.70;99.90;;;;;;4984908;28;20040;-76
2022/12/19 05:18:45;;;;;;;9.73;7.47;;;6.70;99.90;;;;;;4950568;29;20038;-76
2022/12/19 05:21:12;;;;;;;12.57;9.88;;;6.70;99.90;;;;;;4949679;29;20035;-76
2022/12/19 05:23:37;;;;;;;9.73;8.82;;;6.70;99.90;;;;;;4949696;29;20099;-75
2022/12/19 05:26:05;;;;;;;8.63;7.25;;;6.80;99.90;;;;;;4949713;29;20034;-75
2022/12/19 05:28:31;;;;;;;9.10;8.18;;;6.80;99.90;;;;;;4949744;29;20027;-75
2022/12/19 05:31:10;;;;;;;8.95;7.95;;;6.60;99.90;;;;;;4950913;29;20027;-75
2022/12/19 05:33:36;;;;;;;7.68;6.88;;;6.80;99.90;;;;;;4966203;29;20074;-76
2022/12/19 05:36:03;;;;;;;9.15;8.30;;;6.80;99.90;;;;;;4968250;29;20038;-76
2022/12/19 05:38:29;;;;;;;10.18;8.35;;;6.80;99.90;;;;;;4969840;28;20041;-75
2022/12/19 05:40:55;;;;;;;10.88;8.07;;;6.90;99.90;;;;;;4969897;28;20031;-76
2022/12/19 05:43:22;;;;;;;9.93;8.02;;;6.80;99.90;;;;;;4969741;29;20099;-75
2022/12/19 05:45:48;;;;;;;7.68;6.93;;;6.90;99.90;;;;;;4968787;29;20439;-76
2022/12/19 05:48:14;;;;;;;9.63;7.15;;;6.90;99.90;;;;;;4969619;29;20036;-75
2022/12/19 05:50:40;;;;;;;7.10;6.50;;;6.90;99.90;;;;;;4967226;29;20041;-76
2022/12/19 05:53:08;;;;;;;7.20;6.50;;;6.90;99.90;;;;;;4963141;29;20032;-76
2022/12/19 05:55:34;;;;;;;10.27;7.35;;;6.50;99.90;;;;;;4968192;28;20046;-76
2022/12/19 05:58:00;;;;;;;7.63;6.97;;;6.90;99.90;;;;;;4969002;29;20043;-76
2022/12/19 06:00:26;;;;;;;6.75;6.15;;;6.90;99.90;;;;;;4967424;29;20031;-76
2022/12/19 06:02:51;;;;;;;9.70;7.82;;;7.00;99.90;;;;;;4967575;29;20034;-76
2022/12/19 06:05:17;;;;;;;8.98;6.97;;;7.00;99.90;;;;;;4967944;28;20050;-76
2022/12/19 06:07:43;;;;;;;7.78;6.88;;;7.10;99.90;;;;;;4949918;29;20059;-76
2022/12/19 06:10:09;;;;;;;5.88;5.35;;;7.10;99.90;;;;;;4967783;29;20032;-76
2022/12/19 06:12:34;;;;;;;7.72;7.05;;;7.10;99.90;;;;;;4969023;28;20050;-76
2022/12/19 06:15:00;;;;;;;7.38;6.22;;;7.10;99.90;;;;;;4967750;29;20077;-76
2022/12/19 06:17:26;;;;;;;11.20;6.22;;;7.20;99.90;;;;;;4967182;28;20103;-76
2022/12/19 06:19:52;;;;;;;8.15;7.35;;;7.20;99.90;;;;;;4968276;28;20043;-76
2022/12/19 06:22:17;;;;;;;7.97;6.80;;;7.20;99.90;;;;;;4965889;29;20032;-76
2022/12/19 06:24:43;;;;;;;6.60;6.00;;;7.20;99.90;;;;;;4966773;29;20098;-76
2022/12/19 06:27:09;;;;;;;7.75;5.72;;;7.30;99.90;;;;;;4967344;29;20059;-76
2022/12/19 06:29:48;;;;;;;6.43;5.72;;;7.30;99.90;;;;;;4967236;29;20097;-76
2022/12/19 06:32:18;;;;;;;7.50;6.78;;;7.30;99.90;;;;;;4982743;28;20066;-76
2022/12/19 06:34:44;;;;;;;8.05;6.85;;;7.30;99.90;;;;;;4957780;29;20039;-75
2022/12/19 06:37:11;;;;;;;6.28;5.47;;;7.20;99.90;;;;;;4961108;29;20055;-76
2022/12/19 06:39:37;;;;;;;9.43;7.32;;;7.20;99.90;;;;;;4955648;29;20043;-76
2022/12/19 06:44:47;;;;;;;9.95;6.00;;;7.30;99.90;;;;;;4963698;29;20047;-76
2022/12/19 06:47:13;;;;;;;6.15;5.40;;;7.30;99.90;;;;;;4959532;28;20039;-76
2022/12/19 06:49:39;;;;;;;8.85;6.85;;;7.20;99.90;;;;;;4962024;29;20091;-76
2022/12/19 06:52:06;;;;;;;9.70;6.82;;;7.20;99.90;;;;;;4952858;29;20036;-76
2022/12/19 06:54:32;;;;;;;6.30;5.40;;;7.30;99.90;;;;;;4968271;29;20031;-76
2022/12/19 06:56:58;;;;;;;7.20;6.50;;;7.40;99.90;;;;;;4966379;28;20031;-76
2022/12/19 06:59:23;;;;;;;7.15;6.55;;;7.40;99.90;;;;;;4935259;29;20097;-76
2022/12/19 07:02:13;;;;;;;7.18;6.47;;;7.40;99.90;;;;;;4966961;28;20067;-76
2022/12/19 07:04:50;;;;;;;5.60;4.93;;;7.50;99.90;;;;;;4968245;28;20098;-76
2022/12/19 07:07:16;;;;;;;6.22;5.55;;;7.50;99.90;;;;;;4966810;29;20061;-76
2022/12/19 07:09:42;;;;;;;6.15;5.50;;;7.50;99.90;;;;;;4966092;29;20015;-76
2022/12/19 07:12:08;;;;;;;8.27;7.47;;;7.50;99.90;;;;;;4966309;29;20027;-76
2022/12/19 07:14:34;;;;;;;7.82;7.10;;;7.50;99.90;;;;;;4966747;29;20034;-76
2022/12/19 07:17:02;;;;;;;5.72;5.32;;;7.50;99.90;;;;;;4966295;29;20023;-76
2022/12/19 07:19:29;;;;;;;5.07;4.57;;;7.50;99.90;;;;;;4966289;29;20031;-76
2022/12/19 07:21:55;;;;;;;6.82;6.25;;;7.50;99.90;;;;;;4965989;29;20038;-76
2022/12/19 07:24:21;;;;;;;4.97;4.43;;;7.50;99.90;;;;;;4950022;29;20027;-76
2022/12/19 07:26:47;;;;;;;11.75;6.95;;;7.50;99.90;;;;;;4981749;28;20038;-76
2022/12/19 07:29:13;;;;;;;8.40;5.30;;;7.50;99.90;;;;;;4967050;28;20034;-75
2022/12/19 07:31:40;;;;;;;8.75;5.38;;;7.50;99.90;;;;;;4967278;28;20030;-76
2022/12/19 07:34:05;;;;;;;5.93;5.38;;;7.60;99.90;;;;;;4965986;29;20055;-76
2022/12/19 07:36:31;;;;;;;5.45;5.05;;;7.60;99.90;;;;;;4979562;28;20039;-76
2022/12/19 07:38:57;;;;;;;5.55;5.05;;;7.60;99.90;;;;;;4966049;29;20031;-76
2022/12/19 07:41:24;;;;;;;9.60;5.63;;;7.70;99.90;;;;;;4964618;29;20036;-76
2022/12/19 07:43:50;;;;;;;6.53;5.63;;;7.70;99.90;;;;;;4965671;28;20114;-76
2022/12/19 07:46:15;;;;;;;6.28;4.65;;;7.70;99.90;;;;;;4982313;28;20027;-76
2022/12/19 07:48:41;;;;;;;7.80;5.80;;;7.70;99.90;;;;;;4982153;28;20031;-76
2022/12/19 07:51:07;;;;;;;9.77;5.28;;;7.70;99.90;;;;;;4934289;29;20027;-76
2022/12/19 07:53:33;;;;;;;4.25;3.95;;;7.80;99.90;;;;;;4964990;28;20554;-76
2022/12/19 07:55:59;;;;;;;6.15;5.65;;;7.80;99.90;;;;;;4950052;29;20094;-76
2022/12/19 07:58:24;;;;;;;6.47;5.93;;;7.80;99.90;;;;;;4967223;28;20038;-76
2022/12/19 08:00:59;;;;;;;5.57;4.97;;;7.80;99.90;;;;;;4965947;29;20148;-76
2022/12/19 08:03:27;;;;;;;7.85;5.80;;;7.80;99.90;;;;;;4964853;29;20028;-76
2022/12/19 08:06:02;;;;;;;8.25;7.45;;;7.80;99.90;;;;;;4965221;29;20063;-76
2022/12/19 08:08:29;;;;;;;7.20;6.40;;;7.80;99.90;;;;;;4969752;28;20058;-76
2022/12/19 08:10:55;;;;;;;5.32;4.80;;;7.70;99.90;;;;;;4949659;29;20122;-76
2022/12/19 08:13:22;;;;;;;9.05;5.90;;;7.80;99.90;;;;;;4942335;29;20023;-76
2022/12/19 08:15:48;;;;;;;5.95;5.03;;;7.90;99.90;;;;;;4963910;29;20391;-76
2022/12/19 08:18:14;;;;;;;5.93;5.10;;;7.90;99.90;;;;;;4966035;29;20041;-77
2022/12/19 08:20:43;;;;;;;6.75;4.95;;;7.90;99.90;;;;;;4965948;29;20027;-76
2022/12/19 08:23:09;;;;;;;5.35;4.80;;;7.90;99.90;;;;;;4967151;29;20090;-76
2022/12/19 08:25:36;;;;;;;6.00;5.40;;;7.90;99.90;;;;;;4965072;29;20046;-76
2022/12/19 08:28:01;;;;;;;5.18;4.40;;;7.90;99.90;;;;;;4949241;29;20031;-76
2022/12/19 08:30:27;;;;;;;9.00;4.85;;;8.00;99.90;;;;;;4962597;29;20094;-77
2022/12/19 08:32:53;;;;;;;8.20;4.68;;;8.00;99.90;;;;;;4957270;29;20095;-77
2022/12/19 08:35:19;;;;;;;4.95;4.55;;;8.00;99.90;;;;;;4965539;28;20098;-77
2022/12/19 08:37:44;;;;;;;5.20;4.00;;;8.00;99.90;;;;;;4965174;28;20515;-77
2022/12/19 08:40:11;;;;;;;4.50;4.20;;;8.10;99.90;;;;;;4962516;28;20031;-77
2022/12/19 08:42:36;;;;;;;4.30;3.50;;;8.00;99.90;;;;;;4969422;28;20032;-76
2022/12/19 08:45:03;;;;;;;5.55;4.18;;;8.10;99.90;;;;;;4953155;29;20166;-76
2022/12/19 08:47:28;;;;;;;6.13;5.13;;;8.10;99.90;;;;;;4953398;29;20035;-76
2022/12/19 08:49:55;;;;;;;4.45;3.92;;;8.10;99.90;;;;;;4984153;28;20051;-77
2022/12/19 08:52:22;;;;;;;4.25;3.85;;;8.10;99.90;;;;;;4970233;28;20059;-76
2022/12/19 08:54:47;;;;;;;4.57;4.15;;;8.20;99.90;;;;;;4970011;29;20068;-76
2022/12/19 08:57:14;;;;;;;3.95;3.65;;;8.20;99.90;;;;;;4969758;29;20069;-76
2022/12/19 08:59:39;;;;;;;8.50;6.22;;;8.20;99.90;;;;;;4968031;29;20028;-76
2022/12/19 09:02:06;;;;;;;4.45;4.05;;;8.20;99.90;;;;;;4984303;28;20084;-76
2022/12/19 09:04:32;;;;;;;9.23;6.07;;;8.60;99.90;;;;;;4968582;29;20041;-76
2022/12/19 09:06:58;;;;;;;5.78;5.25;;;8.30;99.90;;;;;;4982444;28;20027;-76
2022/12/19 09:09:23;;;;;;;4.07;3.78;;;8.30;99.90;;;;;;4984896;28;20027;-76
2022/12/19 09:11:49;;;;;;;5.93;5.40;;;8.30;99.90;;;;;;4984468;28;20047;-75
2022/12/19 09:14:15;;;;;;;5.43;4.90;;;8.40;99.90;;;;;;4968133;28;20051;-75
2022/12/19 09:16:41;;;;;;;4.07;3.40;;;8.40;99.90;;;;;;4969014;29;20047;-76
2022/12/19 09:19:06;;;;;;;4.15;3.75;;;8.30;99.90;;;;;;4969169;29;20027;-76
2022/12/19 09:21:32;;;;;;;5.97;5.38;;;8.30;99.90;;;;;;4968025;29;20030;-76
2022/12/19 09:23:59;;;;;;;5.28;4.80;;;8.30;99.90;;;;;;4969815;28;20019;-76
2022/12/19 09:26:26;;;;;;;6.28;5.68;;;8.40;99.90;;;;;;4951743;29;20086;-76
2022/12/19 09:28:52;;;;;;;4.53;4.22;;;8.40;99.90;;;;;;4951561;29;20035;-76
2022/12/19 09:31:23;;;;;;;5.70;4.25;;;8.40;99.90;;;;;;4968141;28;20455;-76
2022/12/19 09:33:50;;;;;;;5.28;4.80;;;8.40;99.90;;;;;;4969507;28;20027;-76
2022/12/19 09:36:19;;;;;;;4.38;3.97;;;8.40;99.90;;;;;;4969152;28;20055;-76
2022/12/19 09:38:45;;;;;;;4.43;3.40;;;8.40;99.90;;;;;;4967437;29;20039;-76
2022/12/19 09:41:40;;;;;;;6.40;4.85;;;8.50;99.90;;;;;;4969373;29;20075;-78
2022/12/19 09:44:27;;;;;;;3.90;3.53;;;8.50;99.90;;;;;;4968495;29;20141;-77
2022/12/19 09:47:09;;;;;;;4.25;3.83;;;8.60;99.90;;;;;;4952675;29;20046;-77
2022/12/19 09:49:42;;;;;;;3.63;3.33;;;8.70;99.90;;;;;;4958145;29;20391;-77
2022/12/19 09:52:37;;;;;;;4.20;3.42;;;8.70;99.90;;;;;;4950025;29;20038;-77
2022/12/19 09:55:27;;;;;;;4.00;3.67;;;8.80;99.90;;;;;;4972613;28;20038;-77
2022/12/19 09:58:14;;;;;;;3.70;3.42;;;8.90;99.90;;;;;;4967572;29;20038;-77
2022/12/19 10:00:53;;;;;;;7.20;4.75;;;8.90;99.90;;;;;;4982874;28;20059;-77
2022/12/19 10:03:47;;;;;;;5.28;3.53;;;8.90;99.90;;;;;;4965231;29;20031;-77
2022/12/19 10:06:19;;;;;;;4.28;3.78;;;8.90;99.90;;;;;;4964756;29;20102;-77
2022/12/19 10:08:46;;;;;;;3.85;3.47;;;8.90;99.90;;;;;;4967871;29;20054;-77
2022/12/19 10:11:23;;;;;;;6.50;3.92;;;8.90;99.90;;;;;;4983795;28;20023;-77
2022/12/19 10:14:05;;;;;;;5.22;2.63;;;9.00;99.90;;;;;;4967763;29;20023;-77
2022/12/19 10:16:49;;;;;;;4.18;3.78;;;9.00;99.90;;;;;;4968815;29;20028;-77
2022/12/19 10:19:36;;;;;;;11.15;3.72;;;9.10;99.90;;;;;;4968590;29;20077;-77
2022/12/19 10:22:40;;;;;;;3.92;3.55;;;9.10;99.90;;;;;;4964419;29;20031;-78
2022/12/19 10:25:14;;;;;;;8.10;6.95;;;9.20;99.90;;;;;;4959209;29;20038;-77
2022/12/19 10:28:04;;;;;;;5.82;4.40;;;9.20;99.90;;;;;;4967303;29;20031;-77
2022/12/19 10:30:43;;;;;;;6.88;4.53;;;9.20;99.90;;;;;;4968431;28;20463;-77
2022/12/19 10:33:25;;;;;;;4.68;4.10;;;9.30;99.90;;;;;;4982004;28;20094;-77
2022/12/19 10:35:57;;;;;;;6.82;6.15;;;9.30;99.90;;;;;;4983319;28;20035;-77
2022/12/19 10:38:32;;;;;;;5.30;4.85;;;9.30;99.90;;;;;;4968384;28;20046;-77
2022/12/19 10:41:29;;;;;;;9.18;5.32;;;9.30;99.90;;;;;;4967960;29;20027;-77
2022/12/19 10:44:07;;;;;;;14.00;7.38;;;9.30;99.90;;;;;;4967169;29;20034;-77
2022/12/19 10:46:38;;;;;;;4.65;4.20;;;9.40;99.90;;;;;;4967032;29;20043;-77
2022/12/19 10:49:12;;;;;;;5.47;4.97;;;9.40;99.90;;;;;;4952665;29;20042;-77
2022/12/19 10:51:40;;;;;;;4.50;3.88;;;9.40;99.90;;;;;;4967207;29;20039;-77
2022/12/19 10:54:06;;;;;;;2.80;2.60;;;9.40;99.90;;;;;;4967530;29;20422;-76
2022/12/19 10:56:33;;;;;;;4.22;3.83;;;9.40;99.90;;;;;;4963880;29;20035;-76
2022/12/19 10:59:00;;;;;;;4.30;3.85;;;9.30;99.90;;;;;;4961829;29;20046;-76
2022/12/19 11:01:29;;;;;;;3.25;3.03;;;9.30;99.90;;;;;;4963278;29;20554;-77
2022/12/19 11:04:29;;;;;;;3.60;3.30;;;9.30;99.90;;;;;;4961611;28;20027;-76
2022/12/19 11:07:01;;;;;;;2.33;2.22;;;9.30;99.90;;;;;;4959911;29;20063;-76
2022/12/19 11:09:30;;;;;;;4.47;4.10;;;9.20;99.90;;;;;;4966407;28;20055;-77
2022/12/19 11:12:17;;;;;;;2.42;2.22;;;9.20;99.90;;;;;;4964888;29;20028;-77
2022/12/19 11:15:02;;;;;;;4.05;2.78;;;9.20;99.90;;;;;;4967002;29;20051;-76
2022/12/19 11:17:35;;;;;;;3.80;3.40;;;9.20;99.90;;;;;;4965891;29;20039;-77
2022/12/19 11:20:18;;;;;;;7.63;4.53;;;9.20;99.90;;;;;;4966480;29;20054;-76
2022/12/19 11:22:56;;;;;;;3.53;3.22;;;9.20;99.90;;;;;;4967752;28;20564;-77
2022/12/19 11:25:34;;;;;;;5.05;3.00;;;9.20;99.90;;;;;;4966793;29;20034;-77
2022/12/19 11:28:04;;;;;;;3.65;2.83;;;9.20;99.90;;;;;;4967461;29;20043;-76
2022/12/19 11:30:30;;;;;;;4.07;3.75;;;9.20;99.90;;;;;;4966779;29;20439;-77
2022/12/19 11:33:17;;;;;;;3.30;2.97;;;9.20;99.90;;;;;;4967400;29;20039;-76
2022/12/19 11:35:52;;;;;;;4.65;4.25;;;9.30;99.90;;;;;;4982488;28;20032;-77
2022/12/19 11:38:47;;;;;;;3.70;3.40;;;9.40;99.90;;;;;;4967449;28;20031;-76
2022/12/19 11:41:19;;;;;;;3.50;3.08;;;9.40;99.90;;;;;;4966507;28;20097;-77
2022/12/19 11:44:00;;;;;;;3.45;2.80;;;9.50;99.90;;;;;;4982423;28;20031;-76
2022/12/19 11:46:48;;;;;;;2.85;2.35;;;9.50;99.90;;;;;;4967504;28;20498;-77
2022/12/19 11:49:25;;;;;;;3.90;3.03;;;9.60;99.90;;;;;;4947162;29;20059;-76
2022/12/19 11:52:28;;;;;;;5.32;4.05;;;9.60;99.90;;;;;;4972832;28;20475;-77
2022/12/19 11:55:06;;;;;;;4.32;3.92;;;9.70;99.90;;;;;;4967048;29;20043;-77
2022/12/19 11:57:32;;;;;;;5.72;4.35;;;9.70;99.90;;;;;;4967231;28;20058;-77
2022/12/19 11:59:58;;;;;;;5.95;5.38;;;9.80;99.90;;;;;;4967241;28;20023;-77
2022/12/19 12:03:02;;;;;;;7.30;5.68;;;9.90;99.90;;;;;;4965306;29;20047;-77
2022/12/19 12:05:43;;;;;;;3.60;3.38;;;10.00;99.90;;;;;;4981434;28;20047;-77
2022/12/19 12:08:27;;;;;;;5.15;4.22;;;10.10;99.90;;;;;;4967264;28;20043;-77
2022/12/19 12:11:16;;;;;;;8.07;7.28;;;10.30;99.90;;;;;;4967464;29;20027;-77
2022/12/19 12:14:13;;;;;;;3.97;2.03;;;10.40;99.90;;;;;;4954877;28;20118;-77
2022/12/19 12:17:07;;;;;;;3.05;2.75;;;10.50;99.90;;;;;;4969172;28;20062;-77
2022/12/19 12:20:01;;;;;;;2.70;2.47;;;10.50;99.90;;;;;;4966889;29;20537;-77
2022/12/19 12:22:59;;;;;;;5.53;3.03;;;10.60;99.90;;;;;;4964181;29;20094;-77
2022/12/19 12:25:45;;;;;;;3.83;3.35;;;10.70;99.90;;;;;;4970974;29;20053;-77
2022/12/19 12:28:49;;;;;;;4.03;2.92;;;10.70;99.90;;;;;;4969317;29;20036;-77
2022/12/19 12:31:29;;;;;;;5.53;3.50;;;10.60;99.90;;;;;;4969774;29;20035;-77
2022/12/19 12:34:16;;;;;;;3.38;2.40;;;10.60;99.90;;;;;;4960329;28;20039;-77
2022/12/19 12:36:48;;;;;;;3.10;2.60;;;10.60;99.90;;;;;;4969775;29;20036;-77
2022/12/19 12:39:51;;;;;;;8.00;6.22;;;10.50;99.90;;;;;;4970899;29;20035;-77
2022/12/19 12:42:41;;;;;;;12.73;8.65;;;10.60;99.90;;;;;;4969502;29;20035;-77
2022/12/19 12:45:19;;;;;;;39.45;25.98;;;10.70;99.90;;;;;;4968628;29;20039;-77
2022/12/19 12:47:49;;;;;;;28.20;14.38;;;10.70;99.90;;;;;;4969626;29;20051;-77
2022/12/19 12:50:17;;;;;;;12.27;8.20;;;10.70;99.90;;;;;;4969028;29;20027;-77
2022/12/19 12:52:48;;;;;;;6.93;5.95;;;10.70;99.90;;;;;;4970595;28;20067;-77
2022/12/19 12:55:25;;;;;;;7.78;5.10;;;10.70;99.90;;;;;;4969065;29;20393;-76
2022/12/19 12:57:50;;;;;;;4.95;4.50;;;10.70;99.90;;;;;;4969422;29;20071;-77
2022/12/19 13:00:22;;;;;;;7.13;5.95;;;10.70;99.90;;;;;;4970413;29;20032;-76
2022/12/19 13:03:10;;;;;;;6.60;4.95;;;10.70;99.90;;;;;;4968917;29;20035;-77
2022/12/19 13:05:45;;;;;;;6.10;4.53;;;10.70;99.90;;;;;;4984626;28;20054;-77
2022/12/19 13:08:43;;;;;;;4.18;3.80;;;10.70;99.90;;;;;;4970209;29;20039;-77
2022/12/19 13:14:49;;;;;;;4.40;3.58;;;10.70;99.90;;;;;;4970443;29;20050;-77
2022/12/19 13:17:44;;;;;;;6.93;2.70;;;10.80;99.90;;;;;;4935238;29;20071;-76
2022/12/19 13:20:09;;;;;;;4.85;2.22;;;10.80;99.90;;;;;;4949257;29;20473;-77
2022/12/19 13:22:38;;;;;;;2.38;2.00;;;10.80;99.90;;;;;;4969857;29;20100;-77